KALM/ALM METAR and TAF weather

Enter ICAO airport designator
Station Type Date Time Source
KALM METAR 2021/09/21 19:55 UTC NOAA

KALM 211955Z AUTO VRB05KT 10SM CLR 28/04 A3033 RMK AO2


Station Type Date Time Source
KALM Decoded METAR 2021/09/21 19:55 UTC NOAA

Alamogordo-White, NM, United States (KALM) 32-50N 105-59W
Sep 21, 2021 - 03:55 PM EDT / 2021.09.21 1955 UTC
Wind: Variable at 6 MPH (5 KT):0
Visibility: 10 mile(s):0
Sky conditions: clear
Temperature: 82 F (28 C)
Dew Point: 39 F (4 C)
Relative Humidity: 21%
Pressure (altimeter): 30.33 in. Hg (1027 hPa)
ob: KALM 211955Z AUTO VRB05KT 10SM CLR 28/04 A3033 RMK AO2
cycle: 20

Station Type Date Time Source
KALM TAF UTC NOAA

Error!

Example: see airport list